National Weather Service United States Department of Commerce

Active Weather Pattern Continues for the Northwestern U.S.

A series of Pacific storm systems will bring periods of locally heavy rain, gusty winds, and mountain snow to portions of Washington and Oregon for the next couple days. In addition, much of the northwestern U.S. and Intermountain West will experience strong winds from these storm systems, particularly in Sierra Nevada, Great Basin, and the northern Rockies/High Plains. Read More >

 

 

 

Daily Weather Briefing
Prepared: 11/24/2017 6:08 AM by: MW valid for 9 hours
FOR ATC PLANNING PURPOSES
High pressure will produce VFR conditions under mostly clear skies, however, expect patchy IFR/LIFR fog thru 14z. Widespread frost and related de-icing operations are possible thru 14z. Surface winds will be calm to start, then favoring northeast to southeast at 3-7kts. Flight Hazards: none expected. Altimeters will remain above 29.92ins. CIGS/VIS at/below 050/5SM are expected in all ZTL Areas thru 14z with rapid improvement thereafter. Restricted Area Convection: R2102...None. R3002...None. R3004...None.
FTUS80 KATL 241121 RRA
KATL 241120Z 2412/2518 08005KT P6SM SCT030
     FM241500 VRB03KT P6SM SKC
     FM241900 20004KT P6SM FEW250
     FM250000 VRB03KT P6SM SCT250
     FM251200 27005KT P6SM FEW025 BKN180

REMARKS: NONE.

 

 

FTUS80 KCLT 241121 RRB
KCLT 241120Z 2412/2512 35003KT 6SM BR SKC
     FM241400 04003KT P6SM SKC
     FM241900 16004KT P6SM FEW250
     FM250300 22003KT P6SM SCT250


FROST AND RELATED DE-ICING OPERATIONS POSSIBLE THRU 14z. LIFR/IFR EXPECTED N/S THRU 14Z.

 

 

Go to KATL TAF TDA
Go to KATL TAF TDA

 

 

Go to KCLT TAF TDA
Go to KCLT TAF TDA

ATL Convective GatesConvective Gate Forecast

CLT Convective Gates Convective Gate Forecast

ATL Icing Gates

CLT Icing Gates
Radar/PIREPs/Icing & Turbulence Airmets and Sigmets/CWAs
<PIREP TDA Weather Map